sensor_id;sensor_type;location;lat;lon;timestamp;pressure;altitude;pressure_sealevel;temperature;humidity
64019;BME280;66942;52.138;5.216;2023-02-22T00:01:20;101580.0;;;10.83;65.03
64019;BME280;66942;52.138;5.216;2023-02-22T00:02:58;101581.0;;;10.82;64.92
64019;BME280;66942;52.138;5.216;2023-02-22T00:06:16;101580.0;;;10.91;64.59
64019;BME280;66942;52.138;5.216;2023-02-22T00:07:53;101573.0;;;10.83;64.78
64019;BME280;66942;52.138;5.216;2023-02-22T00:09:33;101578.0;;;10.91;64.59
64019;BME280;66942;52.138;5.216;2023-02-22T00:11:10;101576.0;;;10.97;64.39
64019;BME280;66942;52.138;5.216;2023-02-22T00:14:26;101575.0;;;10.97;64.45
64019;BME280;66942;52.138;5.216;2023-02-22T00:16:03;101575.0;;;10.95;64.47
64019;BME280;66942;52.138;5.216;2023-02-22T00:17:41;101573.0;;;10.97;64.34
64019;BME280;66942;52.138;5.216;2023-02-22T00:20:54;101576.0;;;10.84;64.83
64019;BME280;66942;52.138;5.216;2023-02-22T00:22:31;101580.0;;;10.97;64.41
64019;BME280;66942;52.138;5.216;2023-02-22T00:24:22;101580.0;;;10.88;64.95
64019;BME280;66942;52.138;5.216;2023-02-22T00:25:59;101581.0;;;10.93;64.73
64019;BME280;66942;52.138;5.216;2023-02-22T00:29:11;101582.0;;;10.91;65.09
64019;BME280;66942;52.138;5.216;2023-02-22T00:30:48;101582.0;;;11.04;64.48
64019;BME280;66942;52.138;5.216;2023-02-22T00:32:25;101583.0;;;10.8;65.05
64019;BME280;66942;52.138;5.216;2023-02-22T00:35:37;101582.0;;;10.95;64.55
64019;BME280;66942;52.138;5.216;2023-02-22T00:37:14;101578.0;;;10.87;64.8
64019;BME280;66942;52.138;5.216;2023-02-22T00:38:50;101578.0;;;10.94;64.7
64019;BME280;66942;52.138;5.216;2023-02-22T00:40:28;101573.0;;;10.95;64.63
64019;BME280;66942;52.138;5.216;2023-02-22T00:43:43;101573.0;;;10.64;65.47
64019;BME280;66942;52.138;5.216;2023-02-22T00:45:21;101569.0;;;10.82;64.85
64019;BME280;66942;52.138;5.216;2023-02-22T00:46:59;101563.0;;;10.83;64.75
64019;BME280;66942;52.138;5.216;2023-02-22T00:50:12;101558.0;;;10.28;65.97
64019;BME280;66942;52.138;5.216;2023-02-22T00:51:51;101557.0;;;10.49;65.61
64019;BME280;66942;52.138;5.216;2023-02-22T00:53:27;101555.0;;;10.54;65.84
64019;BME280;66942;52.138;5.216;2023-02-22T00:56:44;101548.0;;;10.75;65.03
64019;BME280;66942;52.138;5.216;2023-02-22T00:58:21;101552.0;;;10.73;65.17
64019;BME280;66942;52.138;5.216;2023-02-22T00:59:57;101547.0;;;10.83;64.94
64019;BME280;66942;52.138;5.216;2023-02-22T01:01:34;101545.0;;;10.71;65.06
64019;BME280;66942;52.138;5.216;2023-02-22T01:04:52;101544.0;;;10.75;64.88
64019;BME280;66942;52.138;5.216;2023-02-22T01:06:28;101541.0;;;10.81;65.16
64019;BME280;66942;52.138;5.216;2023-02-22T01:08:07;101537.0;;;10.93;64.63
64019;BME280;66942;52.138;5.216;2023-02-22T01:09:44;101539.0;;;11.02;64.34
64019;BME280;66942;52.138;5.216;2023-02-22T01:12:58;101537.0;;;10.92;64.94
64019;BME280;66942;52.138;5.216;2023-02-22T01:14:36;101538.0;;;10.66;65.41
64019;BME280;66942;52.138;5.216;2023-02-22T01:16:12;101534.0;;;10.51;65.48
64019;BME280;66942;52.138;5.216;2023-02-22T01:19:27;101539.0;;;10.61;65.41
64019;BME280;66942;52.138;5.216;2023-02-22T01:21:04;101542.0;;;10.63;65.25
64019;BME280;66942;52.138;5.216;2023-02-22T01:22:43;101540.0;;;10.72;65.2
64019;BME280;66942;52.138;5.216;2023-02-22T01:24:21;101541.0;;;10.64;65.27
64019;BME280;66942;52.138;5.216;2023-02-22T01:27:34;101538.0;;;10.71;65.24
64019;BME280;66942;52.138;5.216;2023-02-22T01:29:15;101538.0;;;10.59;65.22
64019;BME280;66942;52.138;5.216;2023-02-22T01:30:55;101537.0;;;10.7;65.05
64019;BME280;66942;52.138;5.216;2023-02-22T01:34:12;101536.0;;;10.71;65.08
64019;BME280;66942;52.138;5.216;2023-02-22T01:35:50;101530.0;;;10.49;65.53
64019;BME280;66942;52.138;5.216;2023-02-22T01:37:26;101527.0;;;10.48;65.56
64019;BME280;66942;52.138;5.216;2023-02-22T01:39:02;101528.0;;;10.63;65.23
64019;BME280;66942;52.138;5.216;2023-02-22T01:42:17;101530.0;;;10.53;65.58
64019;BME280;66942;52.138;5.216;2023-02-22T01:43:53;101537.0;;;10.38;65.45
64019;BME280;66942;52.138;5.216;2023-02-22T01:46:03;101536.0;;;10.39;65.52
64019;BME280;66942;52.138;5.216;2023-02-22T01:47:39;101532.0;;;10.48;65.33
64019;BME280;66942;52.138;5.216;2023-02-22T01:50:55;101523.0;;;10.27;65.49
64019;BME280;66942;52.138;5.216;2023-02-22T01:52:34;101516.0;;;10.43;65.3
64019;BME280;66942;52.138;5.216;2023-02-22T01:54:16;101517.0;;;10.61;64.91
64019;BME280;66942;52.138;5.216;2023-02-22T01:55:55;101516.0;;;10.52;65.31
64019;BME280;66942;52.138;5.216;2023-02-22T01:59:13;101507.0;;;10.3;65.58
64019;BME280;66942;52.138;5.216;2023-02-22T02:00:49;101503.0;;;10.33;65.59
64019;BME280;66942;52.138;5.216;2023-02-22T02:02:26;101508.0;;;10.57;65.08
64019;BME280;66942;52.138;5.216;2023-02-22T02:05:47;101506.0;;;10.06;65.97
64019;BME280;66942;52.138;5.216;2023-02-22T02:07:25;101497.0;;;10.49;64.38
64019;BME280;66942;52.138;5.216;2023-02-22T02:09:08;101496.0;;;10.39;64.8
64019;BME280;66942;52.138;5.216;2023-02-22T02:10:47;101494.0;;;10.29;64.66
64019;BME280;66942;52.138;5.216;2023-02-22T02:14:05;101497.0;;;10.38;64.31
64019;BME280;66942;52.138;5.216;2023-02-22T02:15:43;101497.0;;;10.23;64.49
64019;BME280;66942;52.138;5.216;2023-02-22T02:17:21;101494.0;;;10.3;64.27
64019;BME280;66942;52.138;5.216;2023-02-22T02:18:58;101494.0;;;9.97;65.08
64019;BME280;66942;52.138;5.216;2023-02-22T02:22:29;101488.0;;;9.89;65.0
64019;BME280;66942;52.138;5.216;2023-02-22T02:24:43;101484.0;;;10.03;64.42
64019;BME280;66942;52.138;5.216;2023-02-22T02:27:11;101484.0;;;10.14;64.41
64019;BME280;66942;52.138;5.216;2023-02-22T02:29:25;101482.0;;;10.18;64.27
64019;BME280;66942;52.138;5.216;2023-02-22T02:32:51;101482.0;;;9.99;64.6
64019;BME280;66942;52.138;5.216;2023-02-22T02:34:35;101471.0;;;10.15;63.89
64019;BME280;66942;52.138;5.216;2023-02-22T02:36:18;101471.0;;;10.22;63.75
64019;BME280;66942;52.138;5.216;2023-02-22T02:38:05;101468.0;;;9.97;64.62
64019;BME280;66942;52.138;5.216;2023-02-22T02:39:50;101467.0;;;9.98;64.91
64019;BME280;66942;52.138;5.216;2023-02-22T02:43:17;101469.0;;;9.84;65.27
64019;BME280;66942;52.138;5.216;2023-02-22T02:45:07;101458.0;;;9.98;64.81
64019;BME280;66942;52.138;5.216;2023-02-22T02:46:50;101463.0;;;9.96;64.91
64019;BME280;66942;52.138;5.216;2023-02-22T02:48:33;101457.0;;;9.9;64.99
64019;BME280;66942;52.138;5.216;2023-02-22T02:50:15;101460.0;;;9.75;65.16
64019;BME280;66942;52.138;5.216;2023-02-22T02:53:36;101457.0;;;9.89;64.84
64019;BME280;66942;52.138;5.216;2023-02-22T02:55:13;101457.0;;;9.67;65.02
64019;BME280;66942;52.138;5.216;2023-02-22T02:56:53;101455.0;;;9.56;65.08
64019;BME280;66942;52.138;5.216;2023-02-22T02:58:30;101453.0;;;9.71;64.62
64019;BME280;66942;52.138;5.216;2023-02-22T03:02:16;101449.0;;;9.74;64.47
64019;BME280;66942;52.138;5.216;2023-02-22T03:04:22;101447.0;;;9.57;64.63
64019;BME280;66942;52.138;5.216;2023-02-22T03:06:35;101443.0;;;9.55;65.09
64019;BME280;66942;52.138;5.216;2023-02-22T03:08:19;101445.0;;;9.39;65.33
64019;BME280;66942;52.138;5.216;2023-02-22T03:10:19;101446.0;;;9.68;64.69
64019;BME280;66942;52.138;5.216;2023-02-22T03:12:10;101446.0;;;9.63;64.81
64019;BME280;66942;52.138;5.216;2023-02-22T03:14:01;101448.0;;;9.5;65.44
64019;BME280;66942;52.138;5.216;2023-02-22T03:15:49;101445.0;;;9.34;65.75
64019;BME280;66942;52.138;5.216;2023-02-22T03:17:37;101440.0;;;9.57;65.3
64019;BME280;66942;52.138;5.216;2023-02-22T03:21:10;101439.0;;;9.36;65.6
64019;BME280;66942;52.138;5.216;2023-02-22T03:22:56;101432.0;;;9.59;65.33
64019;BME280;66942;52.138;5.216;2023-02-22T03:24:39;101433.0;;;9.66;65.03
64019;BME280;66942;52.138;5.216;2023-02-22T03:26:27;101431.0;;;9.5;65.55
64019;BME280;66942;52.138;5.216;2023-02-22T03:28:14;101425.0;;;9.49;65.47
64019;BME280;66942;52.138;5.216;2023-02-22T03:31:39;101427.0;;;9.42;65.42
64019;BME280;66942;52.138;5.216;2023-02-22T03:33:23;101425.0;;;9.6;65.03
64019;BME280;66942;52.138;5.216;2023-02-22T03:35:05;101424.0;;;9.4;65.62
64019;BME280;66942;52.138;5.216;2023-02-22T03:36:47;101425.0;;;9.56;65.31
64019;BME280;66942;52.138;5.216;2023-02-22T03:38:26;101419.0;;;9.55;65.2
64019;BME280;66942;52.138;5.216;2023-02-22T03:41:55;101419.0;;;9.52;65.33
64019;BME280;66942;52.138;5.216;2023-02-22T03:43:36;101421.0;;;9.56;65.24
64019;BME280;66942;52.138;5.216;2023-02-22T03:45:18;101413.0;;;9.36;65.83
64019;BME280;66942;52.138;5.216;2023-02-22T03:46:56;101409.0;;;9.3;65.75
64019;BME280;66942;52.138;5.216;2023-02-22T03:50:27;101408.0;;;9.33;65.84
64019;BME280;66942;52.138;5.216;2023-02-22T03:52:07;101406.0;;;9.34;65.92
64019;BME280;66942;52.138;5.216;2023-02-22T03:53:44;101402.0;;;9.38;65.7
64019;BME280;66942;52.138;5.216;2023-02-22T03:55:22;101402.0;;;9.49;65.64
64019;BME280;66942;52.138;5.216;2023-02-22T03:58:48;101403.0;;;9.48;65.72
64019;BME280;66942;52.138;5.216;2023-02-22T04:00:27;101401.0;;;9.06;67.08
64019;BME280;66942;52.138;5.216;2023-02-22T04:02:05;101397.0;;;9.35;66.47
64019;BME280;66942;52.138;5.216;2023-02-22T04:03:42;101391.0;;;9.35;66.33
64019;BME280;66942;52.138;5.216;2023-02-22T04:06:56;101392.0;;;9.38;66.37
64019;BME280;66942;52.138;5.216;2023-02-22T04:08:33;101388.0;;;9.64;65.58
64019;BME280;66942;52.138;5.216;2023-02-22T04:10:11;101380.0;;;9.69;65.5
64019;BME280;66942;52.138;5.216;2023-02-22T04:11:51;101382.0;;;9.72;65.34
64019;BME280;66942;52.138;5.216;2023-02-22T04:15:06;101380.0;;;9.51;65.88
64019;BME280;66942;52.138;5.216;2023-02-22T04:16:44;101383.0;;;9.06;67.08
64019;BME280;66942;52.138;5.216;2023-02-22T04:18:19;101375.0;;;9.56;65.75
64019;BME280;66942;52.138;5.216;2023-02-22T04:21:34;101377.0;;;9.41;66.49
64019;BME280;66942;52.138;5.216;2023-02-22T04:23:10;101362.0;;;9.56;66.06
64019;BME280;66942;52.138;5.216;2023-02-22T04:24:48;101368.0;;;9.3;66.69
64019;BME280;66942;52.138;5.216;2023-02-22T04:26:24;101365.0;;;9.34;66.62
64019;BME280;66942;52.138;5.216;2023-02-22T04:29:38;101368.0;;;9.14;67.33
64019;BME280;66942;52.138;5.216;2023-02-22T04:31:15;101370.0;;;9.23;66.88
64019;BME280;66942;52.138;5.216;2023-02-22T04:32:52;101366.0;;;9.26;66.84
64019;BME280;66942;52.138;5.216;2023-02-22T04:36:05;101358.0;;;9.44;66.7
64019;BME280;66942;52.138;5.216;2023-02-22T04:37:41;101357.0;;;9.5;66.33
64019;BME280;66942;52.138;5.216;2023-02-22T04:39:17;101355.0;;;9.42;66.52
64019;BME280;66942;52.138;5.216;2023-02-22T04:42:29;101350.0;;;9.47;66.39
64019;BME280;66942;52.138;5.216;2023-02-22T04:44:06;101347.0;;;9.27;66.92
64019;BME280;66942;52.138;5.216;2023-02-22T04:45:42;101346.0;;;9.49;66.35
64019;BME280;66942;52.138;5.216;2023-02-22T04:47:18;101345.0;;;9.16;67.22
64019;BME280;66942;52.138;5.216;2023-02-22T04:50:30;101339.0;;;9.39;66.64
64019;BME280;66942;52.138;5.216;2023-02-22T04:52:06;101337.0;;;9.47;66.48
64019;BME280;66942;52.138;5.216;2023-02-22T04:53:43;101333.0;;;9.32;66.91
64019;BME280;66942;52.138;5.216;2023-02-22T04:56:56;101334.0;;;9.39;66.91
64019;BME280;66942;52.138;5.216;2023-02-22T04:58:33;101335.0;;;9.15;67.41
64019;BME280;66942;52.138;5.216;2023-02-22T05:00:14;101338.0;;;8.97;67.91
64019;BME280;66942;52.138;5.216;2023-02-22T05:03:28;101339.0;;;9.18;67.44
64019;BME280;66942;52.138;5.216;2023-02-22T05:05:05;101333.0;;;9.17;67.56
64019;BME280;66942;52.138;5.216;2023-02-22T05:06:42;101330.0;;;9.19;67.38
64019;BME280;66942;52.138;5.216;2023-02-22T05:08:18;101331.0;;;9.39;66.99
64019;BME280;66942;52.138;5.216;2023-02-22T05:11:30;101328.0;;;9.36;66.99
64019;BME280;66942;52.138;5.216;2023-02-22T05:13:06;101325.0;;;9.05;67.44
64019;BME280;66942;52.138;5.216;2023-02-22T05:14:43;101322.0;;;9.3;67.44
64019;BME280;66942;52.138;5.216;2023-02-22T05:17:56;101319.0;;;9.41;66.92
64019;BME280;66942;52.138;5.216;2023-02-22T05:19:32;101317.0;;;9.32;67.14
64019;BME280;66942;52.138;5.216;2023-02-22T05:21:08;101308.0;;;9.23;67.53
64019;BME280;66942;52.138;5.216;2023-02-22T05:24:21;101305.0;;;9.18;67.53
64019;BME280;66942;52.138;5.216;2023-02-22T05:25:57;101306.0;;;9.13;67.41
64019;BME280;66942;52.138;5.216;2023-02-22T05:27:33;101302.0;;;9.23;67.41
64019;BME280;66942;52.138;5.216;2023-02-22T05:29:10;101306.0;;;9.23;67.47
64019;BME280;66942;52.138;5.216;2023-02-22T05:32:23;101305.0;;;9.08;67.69
64019;BME280;66942;52.138;5.216;2023-02-22T05:33:59;101305.0;;;9.0;68.23
64019;BME280;66942;52.138;5.216;2023-02-22T05:35:36;101308.0;;;9.05;68.16
64019;BME280;66942;52.138;5.216;2023-02-22T05:38:48;101301.0;;;9.07;67.88
64019;BME280;66942;52.138;5.216;2023-02-22T05:40:25;101301.0;;;9.24;67.47
64019;BME280;66942;52.138;5.216;2023-02-22T05:42:03;101302.0;;;9.21;67.78
64019;BME280;66942;52.138;5.216;2023-02-22T05:45:18;101302.0;;;8.72;69.23
64019;BME280;66942;52.138;5.216;2023-02-22T05:46:55;101302.0;;;9.17;67.97
64019;BME280;66942;52.138;5.216;2023-02-22T05:48:32;101305.0;;;9.22;67.83
64019;BME280;66942;52.138;5.216;2023-02-22T05:50:09;101306.0;;;9.15;68.06
64019;BME280;66942;52.138;5.216;2023-02-22T05:53:23;101307.0;;;9.32;67.74
64019;BME280;66942;52.138;5.216;2023-02-22T05:54:59;101300.0;;;9.1;68.39
64019;BME280;66942;52.138;5.216;2023-02-22T05:56:36;101300.0;;;8.92;68.61
64019;BME280;66942;52.138;5.216;2023-02-22T05:59:49;101295.0;;;9.17;68.23
64019;BME280;66942;52.138;5.216;2023-02-22T06:01:25;101295.0;;;9.24;68.19
64019;BME280;66942;52.138;5.216;2023-02-22T06:03:03;101292.0;;;9.06;68.99
64019;BME280;66942;52.138;5.216;2023-02-22T06:04:43;101285.0;;;9.07;68.66
64019;BME280;66942;52.138;5.216;2023-02-22T06:07:56;101280.0;;;9.14;68.52
64019;BME280;66942;52.138;5.216;2023-02-22T06:09:32;101276.0;;;9.03;68.75
64019;BME280;66942;52.138;5.216;2023-02-22T06:11:09;101277.0;;;9.11;68.73
64019;BME280;66942;52.138;5.216;2023-02-22T06:14:25;101272.0;;;9.13;68.67
64019;BME280;66942;52.138;5.216;2023-02-22T06:16:01;101275.0;;;8.98;69.28
64019;BME280;66942;52.138;5.216;2023-02-22T06:17:38;101281.0;;;8.72;69.91
64019;BME280;66942;52.138;5.216;2023-02-22T06:20:53;101277.0;;;9.02;69.14
64019;BME280;66942;52.138;5.216;2023-02-22T06:22:29;101277.0;;;9.1;68.83
64019;BME280;66942;52.138;5.216;2023-02-22T06:24:06;101278.0;;;9.21;68.66
64019;BME280;66942;52.138;5.216;2023-02-22T06:25:42;101276.0;;;9.17;68.75
64019;BME280;66942;52.138;5.216;2023-02-22T06:28:54;101278.0;;;9.06;69.11
64019;BME280;66942;52.138;5.216;2023-02-22T06:30:30;101280.0;;;8.98;69.58
64019;BME280;66942;52.138;5.216;2023-02-22T06:32:06;101276.0;;;9.09;69.25
64019;BME280;66942;52.138;5.216;2023-02-22T06:35:20;101272.0;;;9.02;69.52
64019;BME280;66942;52.138;5.216;2023-02-22T06:36:56;101277.0;;;9.08;69.36
64019;BME280;66942;52.138;5.216;2023-02-22T06:38:32;101271.0;;;9.18;68.94
64019;BME280;66942;52.138;5.216;2023-02-22T06:41:49;101267.0;;;8.91;69.72
64019;BME280;66942;52.138;5.216;2023-02-22T06:43:25;101265.0;;;8.68;70.23
64019;BME280;66942;52.138;5.216;2023-02-22T06:45:02;101263.0;;;8.99;69.55
64019;BME280;66942;52.138;5.216;2023-02-22T06:46:39;101261.0;;;9.32;68.63
64019;BME280;66942;52.138;5.216;2023-02-22T06:49:58;101258.0;;;8.97;69.52
64019;BME280;66942;52.138;5.216;2023-02-22T06:51:35;101257.0;;;9.32;68.69
64019;BME280;66942;52.138;5.216;2023-02-22T06:53:12;101262.0;;;9.06;69.58
64019;BME280;66942;52.138;5.216;2023-02-22T06:56:27;101261.0;;;9.21;69.3
64019;BME280;66942;52.138;5.216;2023-02-22T06:58:04;101258.0;;;9.16;69.12
64019;BME280;66942;52.138;5.216;2023-02-22T06:59:41;101253.0;;;9.24;69.09
64019;BME280;66942;52.138;5.216;2023-02-22T07:01:18;101257.0;;;9.34;68.8
64019;BME280;66942;52.138;5.216;2023-02-22T07:04:31;101256.0;;;9.18;69.23
64019;BME280;66942;52.138;5.216;2023-02-22T07:06:08;101258.0;;;9.25;68.97
64019;BME280;66942;52.138;5.216;2023-02-22T07:07:45;101258.0;;;9.3;69.11
64019;BME280;66942;52.138;5.216;2023-02-22T07:11:00;101255.0;;;9.1;69.75
64019;BME280;66942;52.138;5.216;2023-02-22T07:12:36;101255.0;;;9.24;69.47
64019;BME280;66942;52.138;5.216;2023-02-22T07:14:15;101255.0;;;9.17;69.66
64019;BME280;66942;52.138;5.216;2023-02-22T07:15:52;101259.0;;;9.15;69.8
64019;BME280;66942;52.138;5.216;2023-02-22T07:19:05;101257.0;;;9.31;69.39
64019;BME280;66942;52.138;5.216;2023-02-22T07:20:41;101260.0;;;9.15;69.78
64019;BME280;66942;52.138;5.216;2023-02-22T07:22:18;101256.0;;;9.03;69.95
64019;BME280;66942;52.138;5.216;2023-02-22T07:25:33;101260.0;;;9.16;69.5
64019;BME280;66942;52.138;5.216;2023-02-22T07:27:09;101258.0;;;9.23;69.44
64019;BME280;66942;52.138;5.216;2023-02-22T07:28:46;101262.0;;;9.21;69.41
64019;BME280;66942;52.138;5.216;2023-02-22T07:32:03;101261.0;;;9.3;69.37
64019;BME280;66942;52.138;5.216;2023-02-22T07:33:41;101260.0;;;9.1;69.67
64019;BME280;66942;52.138;5.216;2023-02-22T07:35:20;101262.0;;;9.22;69.58
64019;BME280;66942;52.138;5.216;2023-02-22T07:36:57;101263.0;;;9.27;69.44
64019;BME280;66942;52.138;5.216;2023-02-22T07:40:11;101268.0;;;9.23;69.66
64019;BME280;66942;52.138;5.216;2023-02-22T07:41:48;101271.0;;;9.35;69.48
64019;BME280;66942;52.138;5.216;2023-02-22T07:43:26;101271.0;;;9.26;69.52
64019;BME280;66942;52.138;5.216;2023-02-22T07:46:40;101276.0;;;9.13;69.67
64019;BME280;66942;52.138;5.216;2023-02-22T07:48:19;101276.0;;;9.34;69.33
64019;BME280;66942;52.138;5.216;2023-02-22T07:49:56;101276.0;;;9.31;69.58
64019;BME280;66942;52.138;5.216;2023-02-22T07:51:32;101286.0;;;9.28;69.78
64019;BME280;66942;52.138;5.216;2023-02-22T07:54:51;101289.0;;;9.34;69.52
64019;BME280;66942;52.138;5.216;2023-02-22T07:56:27;101286.0;;;9.34;69.27
64019;BME280;66942;52.138;5.216;2023-02-22T07:58:05;101285.0;;;9.19;69.69
64019;BME280;66942;52.138;5.216;2023-02-22T08:01:21;101283.0;;;9.06;69.89
64019;BME280;66942;52.138;5.216;2023-02-22T08:02:59;101280.0;;;9.24;69.77
64019;BME280;66942;52.138;5.216;2023-02-22T08:04:35;101277.0;;;9.0;70.33
64019;BME280;66942;52.138;5.216;2023-02-22T08:06:11;101287.0;;;9.28;69.66
64019;BME280;66942;52.138;5.216;2023-02-22T08:09:23;101286.0;;;9.15;69.83
64019;BME280;66942;52.138;5.216;2023-02-22T08:11:00;101291.0;;;9.33;69.44
64019;BME280;66942;52.138;5.216;2023-02-22T08:12:37;101290.0;;;9.28;69.58
64019;BME280;66942;52.138;5.216;2023-02-22T08:15:52;101287.0;;;9.44;69.24
64019;BME280;66942;52.138;5.216;2023-02-22T08:17:29;101289.0;;;9.52;69.05
64019;BME280;66942;52.138;5.216;2023-02-22T08:19:05;101287.0;;;9.14;69.47
64019;BME280;66942;52.138;5.216;2023-02-22T08:20:43;101285.0;;;9.48;69.05
64019;BME280;66942;52.138;5.216;2023-02-22T08:23:57;101284.0;;;9.36;69.47
64019;BME280;66942;52.138;5.216;2023-02-22T08:25:34;101283.0;;;9.39;69.44
64019;BME280;66942;52.138;5.216;2023-02-22T08:27:11;101273.0;;;9.52;69.33
64019;BME280;66942;52.138;5.216;2023-02-22T08:30:24;101274.0;;;9.65;68.66
64019;BME280;66942;52.138;5.216;2023-02-22T08:32:00;101272.0;;;9.53;68.88
64019;BME280;66942;52.138;5.216;2023-02-22T08:33:36;101276.0;;;9.43;69.22
64019;BME280;66942;52.138;5.216;2023-02-22T08:36:51;101275.0;;;9.52;69.13
64019;BME280;66942;52.138;5.216;2023-02-22T08:38:30;101280.0;;;9.36;69.38
64019;BME280;66942;52.138;5.216;2023-02-22T08:40:08;101281.0;;;9.49;69.33
64019;BME280;66942;52.138;5.216;2023-02-22T08:41:44;101286.0;;;9.41;69.34
64019;BME280;66942;52.138;5.216;2023-02-22T08:44:58;101281.0;;;9.66;68.66
64019;BME280;66942;52.138;5.216;2023-02-22T08:46:35;101282.0;;;9.76;68.58
64019;BME280;66942;52.138;5.216;2023-02-22T08:48:11;101272.0;;;10.02;67.75
64019;BME280;66942;52.138;5.216;2023-02-22T08:51:24;101270.0;;;10.09;67.7
64019;BME280;66942;52.138;5.216;2023-02-22T08:53:03;101266.0;;;10.06;67.8
64019;BME280;66942;52.138;5.216;2023-02-22T08:54:40;101259.0;;;9.97;67.94
64019;BME280;66942;52.138;5.216;2023-02-22T08:56:16;101250.0;;;10.02;67.59
64019;BME280;66942;52.138;5.216;2023-02-22T08:59:29;101251.0;;;9.73;68.44
64019;BME280;66942;52.138;5.216;2023-02-22T09:01:05;101246.0;;;9.73;68.09
64019;BME280;66942;52.138;5.216;2023-02-22T09:02:41;101246.0;;;10.16;67.19
64019;BME280;66942;52.138;5.216;2023-02-22T09:05:55;101245.0;;;10.19;67.08
64019;BME280;66942;52.138;5.216;2023-02-22T09:07:31;101252.0;;;10.18;67.1
64019;BME280;66942;52.138;5.216;2023-02-22T09:09:08;101255.0;;;10.26;66.91
64019;BME280;66942;52.138;5.216;2023-02-22T09:12:22;101251.0;;;10.0;67.37
64019;BME280;66942;52.138;5.216;2023-02-22T09:13:58;101255.0;;;10.34;66.89
64019;BME280;66942;52.138;5.216;2023-02-22T09:15:35;101257.0;;;10.34;66.91
64019;BME280;66942;52.138;5.216;2023-02-22T09:17:13;101251.0;;;10.35;66.69
64019;BME280;66942;52.138;5.216;2023-02-22T09:20:26;101248.0;;;10.47;66.49
64019;BME280;66942;52.138;5.216;2023-02-22T09:22:03;101251.0;;;10.64;66.53
64019;BME280;66942;52.138;5.216;2023-02-22T09:23:40;101248.0;;;10.64;66.22
64019;BME280;66942;52.138;5.216;2023-02-22T09:26:54;101241.0;;;10.76;65.74
64019;BME280;66942;52.138;5.216;2023-02-22T09:28:29;101237.0;;;10.66;65.89
64019;BME280;66942;52.138;5.216;2023-02-22T09:30:16;101230.0;;;10.86;65.64
64019;BME280;66942;52.138;5.216;2023-02-22T09:31:54;101227.0;;;10.9;65.88
64019;BME280;66942;52.138;5.216;2023-02-22T09:35:07;101226.0;;;11.05;65.28
64019;BME280;66942;52.138;5.216;2023-02-22T09:36:46;101222.0;;;10.91;65.36
64019;BME280;66942;52.138;5.216;2023-02-22T09:38:25;101214.0;;;10.49;65.99
64019;BME280;66942;52.138;5.216;2023-02-22T09:41:43;101212.0;;;10.62;66.27
64019;BME280;66942;52.138;5.216;2023-02-22T09:43:34;101210.0;;;10.97;65.5
64019;BME280;66942;52.138;5.216;2023-02-22T09:45:15;101208.0;;;11.06;65.35
64019;BME280;66942;52.138;5.216;2023-02-22T09:46:56;101207.0;;;11.22;65.17
64019;BME280;66942;52.138;5.216;2023-02-22T09:48:35;101208.0;;;11.32;65.02
64019;BME280;66942;52.138;5.216;2023-02-22T09:52:02;101206.0;;;11.52;64.63
64019;BME280;66942;52.138;5.216;2023-02-22T09:53:44;101205.0;;;11.5;64.42
64019;BME280;66942;52.138;5.216;2023-02-22T09:55:30;101202.0;;;11.48;64.25
64019;BME280;66942;52.138;5.216;2023-02-22T09:57:13;101202.0;;;11.65;64.1
64019;BME280;66942;52.138;5.216;2023-02-22T10:00:36;101191.0;;;11.77;63.6
64019;BME280;66942;52.138;5.216;2023-02-22T10:02:22;101188.0;;;11.56;63.27
64019;BME280;66942;52.138;5.216;2023-02-22T10:04:05;101190.0;;;12.05;63.07
64019;BME280;66942;52.138;5.216;2023-02-22T10:05:51;101193.0;;;12.02;62.37
64019;BME280;66942;52.138;5.216;2023-02-22T10:07:32;101197.0;;;11.94;62.96
64019;BME280;66942;52.138;5.216;2023-02-22T10:10:55;101193.0;;;11.84;61.9
64019;BME280;66942;52.138;5.216;2023-02-22T10:12:50;101189.0;;;12.33;61.86
64019;BME280;66942;52.138;5.216;2023-02-22T10:14:47;101197.0;;;12.27;61.44
64019;BME280;66942;52.138;5.216;2023-02-22T10:16:35;101196.0;;;12.53;60.98
64019;BME280;66942;52.138;5.216;2023-02-22T10:18:49;101193.0;;;12.69;59.99
64019;BME280;66942;52.138;5.216;2023-02-22T10:20:47;101189.0;;;12.62;59.69
64019;BME280;66942;52.138;5.216;2023-02-22T10:22:37;101192.0;;;12.57;61.58
64019;BME280;66942;52.138;5.216;2023-02-22T10:24:29;101192.0;;;12.76;60.2
64019;BME280;66942;52.138;5.216;2023-02-22T10:27:55;101190.0;;;12.81;59.58
64019;BME280;66942;52.138;5.216;2023-02-22T10:29:38;101192.0;;;12.53;59.58
64019;BME280;66942;52.138;5.216;2023-02-22T10:31:19;101194.0;;;12.54;59.17
64019;BME280;66942;52.138;5.216;2023-02-22T10:33:03;101191.0;;;12.83;59.88
64019;BME280;66942;52.138;5.216;2023-02-22T10:34:46;101192.0;;;12.97;59.17
64019;BME280;66942;52.138;5.216;2023-02-22T10:38:13;101192.0;;;13.15;58.5
64019;BME280;66942;52.138;5.216;2023-02-22T10:39:56;101192.0;;;12.97;59.39
64019;BME280;66942;52.138;5.216;2023-02-22T10:41:40;101196.0;;;12.86;59.13
64019;BME280;66942;52.138;5.216;2023-02-22T10:43:23;101199.0;;;12.66;58.83
64019;BME280;66942;52.138;5.216;2023-02-22T10:46:36;101195.0;;;13.18;58.04
64019;BME280;66942;52.138;5.216;2023-02-22T10:48:15;101189.0;;;12.96;58.46
64019;BME280;66942;52.138;5.216;2023-02-22T10:49:57;101185.0;;;12.91;58.8
64019;BME280;66942;52.138;5.216;2023-02-22T10:51:34;101185.0;;;12.93;58.98
64019;BME280;66942;52.138;5.216;2023-02-22T10:54:51;101184.0;;;13.03;58.23
64019;BME280;66942;52.138;5.216;2023-02-22T10:56:29;101180.0;;;12.78;58.43
64019;BME280;66942;52.138;5.216;2023-02-22T10:58:07;101175.0;;;13.01;58.57
64019;BME280;66942;52.138;5.216;2023-02-22T10:59:44;101171.0;;;12.97;58.69
64019;BME280;66942;52.138;5.216;2023-02-22T11:03:05;101173.0;;;12.94;57.93
64019;BME280;66942;52.138;5.216;2023-02-22T11:04:52;101168.0;;;12.85;58.07
64019;BME280;66942;52.138;5.216;2023-02-22T11:06:31;101167.0;;;12.81;58.16
64019;BME280;66942;52.138;5.216;2023-02-22T11:08:21;101167.0;;;12.13;59.84
64019;BME280;66942;52.138;5.216;2023-02-22T11:11:40;101167.0;;;12.8;58.82
64019;BME280;66942;52.138;5.216;2023-02-22T11:13:23;101162.0;;;12.83;58.67